createdAt,value
2019-06-10T00:00:35.506Z,49.99
2019-06-10T00:01:35.492Z,48.69
2019-06-10T00:02:35.485Z,49.19
2019-06-10T00:03:35.474Z,48.69
2019-06-10T00:04:35.465Z,48.76
2019-06-10T00:05:35.455Z,48.69
2019-06-10T00:06:35.444Z,49.57
2019-06-10T00:07:35.429Z,48.79
2019-06-10T00:08:35.420Z,48.69
2019-06-10T00:09:35.422Z,49.19
2019-06-10T00:10:35.396Z,48.89
2019-06-10T00:11:35.387Z,48.79
2019-06-10T00:12:35.374Z,48.69
2019-06-10T00:13:35.363Z,49.37
2019-06-10T00:14:35.355Z,49.76
2019-06-10T00:15:35.348Z,49.39
2019-06-10T00:16:35.331Z,49.87
2019-06-10T00:17:47.814Z,50.09
2019-06-10T00:18:42.204Z,50.19
2019-06-10T00:19:36.311Z,50.19
2019-06-10T00:20:35.288Z,50.49
2019-06-10T00:21:35.288Z,49.89
2019-06-10T00:22:35.265Z,50.19
2019-06-10T00:23:35.254Z,51.39
2019-06-10T00:24:35.244Z,51.12
2019-06-10T00:25:35.230Z,50.89
2019-06-10T00:26:35.227Z,50.19
2019-06-10T00:27:35.218Z,51.32
2019-06-10T00:28:35.200Z,52.52
2019-06-10T00:29:35.206Z,51.92
2019-06-10T00:30:35.180Z,52.62
2019-06-10T00:31:35.165Z,52.82
2019-06-10T00:32:35.157Z,53.62
2019-06-10T00:33:35.142Z,54.15
2019-06-10T00:34:35.200Z,53.72
2019-06-10T00:35:35.130Z,54.22
2019-06-10T00:36:35.118Z,55.63
2019-06-10T00:37:35.100Z,56.73
2019-06-10T00:38:35.092Z,55.85
2019-06-10T00:39:35.082Z,55.38
2019-06-10T00:40:35.064Z,55.68
2019-06-10T00:41:35.062Z,56.88
2019-06-10T00:42:35.052Z,56.78
2019-06-10T00:43:35.032Z,57.18
2019-06-10T00:44:35.042Z,57.18
2019-06-10T00:45:35.016Z,57.79
2019-06-10T00:46:35.008Z,57.89
2019-06-10T00:47:34.991Z,58.69
2019-06-10T00:48:34.989Z,56.28
2019-06-10T00:49:34.973Z,55.58
2019-06-10T00:50:34.969Z,56.98
2019-06-10T00:51:34.952Z,58.09
2019-06-10T00:52:34.939Z,56.21
2019-06-10T00:53:34.932Z,57.08
2019-06-10T00:54:34.934Z,56.48
2019-06-10T00:55:34.914Z,55.30
2019-06-10T00:56:34.895Z,57.51
2019-06-10T00:57:34.892Z,57.81
2019-06-10T00:58:34.888Z,58.11
2019-06-10T00:59:34.871Z,56.10
2019-06-10T01:00:34.864Z,57.51
2019-06-10T01:01:34.848Z,56.81
2019-06-10T01:02:34.836Z,60.62
2019-06-10T01:03:34.824Z,59.32
2019-06-10T01:04:34.817Z,57.11
2019-06-10T01:05:34.803Z,59.62
2019-06-10T01:06:34.792Z,59.72
2019-06-10T01:07:34.788Z,60.52
2019-06-10T01:08:34.775Z,61.22
2019-06-10T01:09:34.758Z,61.55
2019-06-10T01:10:34.797Z,61.46
2019-06-10T01:11:34.743Z,60.25
2019-06-10T01:12:34.732Z,61.49
2019-06-10T01:13:34.733Z,61.18
2019-06-10T01:14:34.718Z,64.00
2019-06-10T01:15:34.694Z,62.99
2019-06-10T01:16:34.684Z,61.66
2019-06-10T01:17:34.674Z,62.16
2019-06-10T01:18:38.472Z,61.96
2019-06-10T01:19:34.662Z,64.77
2019-06-10T01:20:34.647Z,63.46
2019-06-10T01:21:34.633Z,64.97
2019-06-10T01:22:34.624Z,65.50
2019-06-10T01:23:34.609Z,66.41
2019-06-10T01:24:34.608Z,66.81
2019-06-10T01:25:34.598Z,65.91
2019-06-10T01:26:34.592Z,66.71
2019-06-10T01:27:34.575Z,68.12
2019-06-10T01:28:34.584Z,69.22
2019-06-10T01:29:34.549Z,68.59
2019-06-10T01:30:34.536Z,69.52
2019-06-10T01:31:34.522Z,69.52
2019-06-10T01:32:34.524Z,69.82
2019-06-10T01:33:34.506Z,69.42
2019-06-10T01:34:34.496Z,68.92
2019-06-10T01:35:34.489Z,68.21
2019-06-10T01:36:34.476Z,69.92
2019-06-10T01:37:34.488Z,70.03
2019-06-10T01:38:34.456Z,71.83
2019-06-10T01:39:34.438Z,72.07
2019-06-10T01:40:34.431Z,71.16
2019-06-10T01:41:34.425Z,71.26
2019-06-10T01:42:34.410Z,71.36
2019-06-10T01:43:34.396Z,71.77
2019-06-10T01:44:34.384Z,71.26
2019-06-10T01:45:34.377Z,71.06
2019-06-10T01:46:34.368Z,71.30
2019-06-10T01:47:34.351Z,71.30
2019-06-10T01:48:44.209Z,71.30
2019-06-10T01:49:35.331Z,71.20
2019-06-10T01:50:34.336Z,70.19
2019-06-10T01:51:34.316Z,69.38
2019-06-10T01:52:34.306Z,70.50
2019-06-10T01:53:34.294Z,69.29
2019-06-10T01:54:34.284Z,70.09
2019-06-10T01:55:34.276Z,71.30
2019-06-10T01:56:34.264Z,69.59
2019-06-10T01:57:34.259Z,69.59
2019-06-10T01:58:34.240Z,70.16
2019-06-10T01:59:34.226Z,70.06
2019-06-10T02:00:34.234Z,68.85
2019-06-10T02:01:34.214Z,68.88
2019-06-10T02:02:35.225Z,70.09
2019-06-10T02:03:34.186Z,69.29
2019-06-10T02:04:34.181Z,69.38
2019-06-10T02:05:34.165Z,69.49
2019-06-10T02:06:34.165Z,69.69
2019-06-10T02:07:34.138Z,69.99
2019-06-10T02:08:34.137Z,69.29
2019-06-10T02:09:34.128Z,69.79
2019-06-10T02:10:34.106Z,70.39
2019-06-10T02:11:34.100Z,69.59
2019-06-10T02:12:34.108Z,70.19
2019-06-10T02:13:34.085Z,68.88
2019-06-10T02:14:34.066Z,70.29
2019-06-10T02:15:34.052Z,70.29
2019-06-10T02:16:34.053Z,70.70
2019-06-10T02:17:34.034Z,69.79
2019-06-10T02:18:34.024Z,68.01
2019-06-10T02:19:34.009Z,67.68
2019-06-10T02:20:33.998Z,67.38
2019-06-10T02:21:33.985Z,62.24
2019-06-10T02:22:33.984Z,62.35
2019-06-10T02:23:33.986Z,62.15
2019-06-10T02:24:33.962Z,63.96
2019-06-10T02:25:33.948Z,61.65
2019-06-10T02:26:33.938Z,62.55
2019-06-10T02:27:33.922Z,61.65
2019-06-10T02:28:33.915Z,59.91
2019-06-10T02:29:33.904Z,60.00
2019-06-10T02:30:44.164Z,60.31
2019-06-10T02:31:37.531Z,61.11
2019-06-10T02:32:37.602Z,60.31
2019-06-10T02:33:36.603Z,60.61
2019-06-10T02:34:39.089Z,61.69
2019-06-10T02:35:44.010Z,63.53
2019-06-10T02:36:36.911Z,63.29
2019-06-10T02:37:37.908Z,60.58
2019-06-10T02:38:39.244Z,62.39
2019-06-10T02:39:38.771Z,61.21
2019-06-10T02:40:36.503Z,61.08
2019-06-10T02:41:36.359Z,63.22
2019-06-10T02:42:35.733Z,63.82
2019-06-10T02:43:37.502Z,67.18
2019-06-10T02:44:37.536Z,70.76
2019-06-10T02:45:37.555Z,72.74
2019-06-10T02:46:36.234Z,71.73
2019-06-10T02:47:37.863Z,73.42
2019-06-10T02:48:34.997Z,74.87
2019-06-10T02:49:51.599Z,73.85
2019-06-10T02:50:36.407Z,74.05
2019-06-10T02:51:35.777Z,75.71
2019-06-10T02:52:38.158Z,76.72
2019-06-10T02:53:36.450Z,78.43
2019-06-10T02:54:36.031Z,78.94
2019-06-10T02:55:35.119Z,80.65
2019-06-10T02:56:36.454Z,80.90
2019-06-10T02:57:39.710Z,81.50
2019-06-10T02:58:39.083Z,83.07
2019-06-10T02:59:36.374Z,84.63
2019-06-10T03:00:39.671Z,81.87
2019-06-10T03:01:38.089Z,82.41
2019-06-10T03:02:36.425Z,82.41
2019-06-10T03:03:42.535Z,81.74
2019-06-10T03:04:37.606Z,82.35
2019-06-10T03:05:40.655Z,83.15
2019-06-10T03:06:39.332Z,84.97
2019-06-10T03:07:35.556Z,84.27
2019-06-10T03:08:36.117Z,86.25
2019-06-10T03:09:35.699Z,86.45
2019-06-10T03:10:36.952Z,86.45
2019-06-10T03:11:37.307Z,84.43
2019-06-10T03:12:33.462Z,83.22
2019-06-10T03:13:33.424Z,83.32
2019-06-10T03:14:33.417Z,82.81
2019-06-10T03:15:33.400Z,84.37
2019-06-10T03:16:33.400Z,83.82
2019-06-10T03:17:33.384Z,85.44
2019-06-10T03:18:33.375Z,84.83
2019-06-10T03:19:46.479Z,84.73
2019-06-10T03:20:34.364Z,85.17
2019-06-10T03:21:33.344Z,86.39
2019-06-10T03:22:33.331Z,86.33
2019-06-10T03:23:33.311Z,87.13
2019-06-10T03:24:33.298Z,88.31
2019-06-10T03:25:33.294Z,86.99
2019-06-10T03:26:33.276Z,88.01
2019-06-10T03:27:33.274Z,87.60
2019-06-10T03:28:33.268Z,88.37
2019-06-10T03:29:33.253Z,88.97
2019-06-10T03:30:47.245Z,88.97
2019-06-10T03:31:41.477Z,88.37
2019-06-10T03:32:40.543Z,88.26
2019-06-10T03:33:40.705Z,88.37
2019-06-10T03:34:41.484Z,87.96
2019-06-10T03:35:34.184Z,87.96
2019-06-10T03:36:33.184Z,87.96
2019-06-10T03:37:33.160Z,88.37
2019-06-10T03:38:33.160Z,88.87
2019-06-10T03:39:33.159Z,89.58
2019-06-10T03:40:33.134Z,89.72
2019-06-10T03:41:33.120Z,88.71
2019-06-10T03:42:33.110Z,88.37
2019-06-10T03:43:33.193Z,87.76
2019-06-10T03:44:33.172Z,88.37
2019-06-10T03:45:33.076Z,88.97
2019-06-10T03:46:33.066Z,90.08
2019-06-10T03:47:33.057Z,90.28
2019-06-10T03:48:33.111Z,89.78
2019-06-10T03:49:33.037Z,90.39
2019-06-10T03:50:33.029Z,90.59
2019-06-10T03:51:33.431Z,90.79
2019-06-10T03:52:33.006Z,90.99
2019-06-10T03:53:33.629Z,91.03
2019-06-10T03:54:32.980Z,91.74
2019-06-10T03:55:33.218Z,92.00
2019-06-10T03:56:32.958Z,92.55
2019-06-10T03:57:33.155Z,92.65
2019-06-10T03:58:33.056Z,92.61
2019-06-10T03:59:32.922Z,92.71
2019-06-10T04:00:33.790Z,92.30
2019-06-10T04:01:33.446Z,92.41
2019-06-10T04:02:32.892Z,91.85
2019-06-10T04:03:33.941Z,92.10
2019-06-10T04:04:32.965Z,92.00
2019-06-10T04:05:33.211Z,92.41
2019-06-10T04:06:33.594Z,93.26
2019-06-10T04:07:34.266Z,92.55
2019-06-10T04:08:33.162Z,92.81
2019-06-10T04:09:33.129Z,91.85
2019-06-10T04:10:32.807Z,91.54
2019-06-10T04:11:35.522Z,91.74
2019-06-10T04:12:32.913Z,93.16
2019-06-10T04:13:33.854Z,92.85
2019-06-10T04:14:32.884Z,91.54
2019-06-10T04:15:32.804Z,90.94
2019-06-10T04:16:32.929Z,91.54
2019-06-10T04:17:33.309Z,91.64
2019-06-10T04:18:33.015Z,91.70
2019-06-10T04:19:32.871Z,91.80
2019-06-10T04:20:33.171Z,91.30
2019-06-10T04:21:32.802Z,91.80
2019-06-10T04:22:33.031Z,91.76
2019-06-10T04:23:33.447Z,92.21
2019-06-10T04:24:32.823Z,91.50
2019-06-10T04:25:32.641Z,92.41
2019-06-10T04:26:32.932Z,92.41
2019-06-10T04:27:32.926Z,91.66
2019-06-10T04:28:33.726Z,91.50
2019-06-10T04:29:33.010Z,91.39
2019-06-10T04:30:32.623Z,90.39
2019-06-10T04:31:33.024Z,89.48
2019-06-10T04:32:32.566Z,89.48
2019-06-10T04:33:33.028Z,88.71
2019-06-10T04:34:33.322Z,88.21
2019-06-10T04:35:33.672Z,88.61
2019-06-10T04:36:33.291Z,88.71
2019-06-10T04:37:32.614Z,89.22
2019-06-10T04:38:32.974Z,89.52
2019-06-10T04:39:33.643Z,89.42
2019-06-10T04:40:32.979Z,89.72
2019-06-10T04:41:32.649Z,88.51
2019-06-10T04:42:32.940Z,89.87
2019-06-10T04:43:32.829Z,89.16
2019-06-10T04:44:33.005Z,89.92
2019-06-10T04:45:32.571Z,89.92
2019-06-10T04:46:32.656Z,89.72
2019-06-10T04:47:33.330Z,89.12
2019-06-10T04:48:32.956Z,89.32
2019-06-10T04:49:32.808Z,89.42
2019-06-10T04:50:41.929Z,89.66
2019-06-10T04:51:33.366Z,89.76
2019-06-10T04:52:33.094Z,90.67
2019-06-10T04:53:33.128Z,90.67
2019-06-10T04:54:33.294Z,90.67
2019-06-10T04:55:32.706Z,90.88
2019-06-10T04:56:33.415Z,91.38
2019-06-10T04:57:32.892Z,91.99
2019-06-10T04:58:33.321Z,91.49
2019-06-10T04:59:33.639Z,92.60
2019-06-10T05:00:33.118Z,93.81
2019-06-10T05:01:33.575Z,92.96
2019-06-10T05:02:33.028Z,91.49
2019-06-10T05:03:32.946Z,90.78
2019-06-10T05:04:32.918Z,90.67
2019-06-10T05:05:32.795Z,91.08
2019-06-10T05:06:32.826Z,91.54
2019-06-10T05:07:36.655Z,91.74
2019-06-10T05:08:33.981Z,91.85
2019-06-10T05:09:33.502Z,92.35
2019-06-10T05:10:33.249Z,93.76
2019-06-10T05:11:33.138Z,92.81
2019-06-10T05:12:32.718Z,92.14
2019-06-10T05:13:33.670Z,92.25
2019-06-10T05:14:33.413Z,92.35
2019-06-10T05:15:34.808Z,93.21
2019-06-10T05:16:35.500Z,92.25
2019-06-10T05:17:34.349Z,92.14
2019-06-10T05:18:33.186Z,92.61
2019-06-10T05:19:33.752Z,92.71
2019-06-10T05:20:49.770Z,92.96
2019-06-10T05:21:33.762Z,92.81
2019-06-10T05:22:32.788Z,92.71
2019-06-10T05:23:32.943Z,92.50
2019-06-10T05:24:34.337Z,92.41
2019-06-10T05:25:32.744Z,92.50
2019-06-10T05:26:33.597Z,92.50
2019-06-10T05:27:33.100Z,92.50
2019-06-10T05:28:34.141Z,92.21
2019-06-10T05:29:34.067Z,92.61
2019-06-10T05:30:34.118Z,93.12
2019-06-10T05:31:35.138Z,92.91
2019-06-10T05:32:33.365Z,92.71
2019-06-10T05:33:33.454Z,92.50
2019-06-10T05:34:34.717Z,92.06
2019-06-10T05:35:33.917Z,91.39
2019-06-10T05:36:34.606Z,90.95
2019-06-10T05:37:33.964Z,90.85
2019-06-10T05:38:35.153Z,90.34
2019-06-10T05:39:34.843Z,90.69
2019-06-10T05:40:33.789Z,90.39
2019-06-10T05:41:35.126Z,91.50
2019-06-10T05:42:35.612Z,91.19
2019-06-10T05:43:34.372Z,91.19
2019-06-10T05:44:34.441Z,91.60
2019-06-10T05:45:34.451Z,91.80
2019-06-10T05:46:34.713Z,92.00
2019-06-10T05:47:35.854Z,92.00
2019-06-10T05:48:33.656Z,92.71
2019-06-10T05:49:35.645Z,93.01
2019-06-10T05:50:33.582Z,93.56
2019-06-10T05:51:35.093Z,93.66
2019-06-10T05:52:33.810Z,93.62
2019-06-10T05:53:35.023Z,93.41
2019-06-10T05:54:34.944Z,92.97
2019-06-10T05:55:33.481Z,92.97
2019-06-10T05:56:33.831Z,92.82
2019-06-10T05:57:33.468Z,93.13
2019-06-10T05:58:34.176Z,91.97
2019-06-10T05:59:34.097Z,91.77
2019-06-10T06:00:33.492Z,90.26
2019-06-10T06:01:36.378Z,90.56
2019-06-10T06:02:35.077Z,90.26
2019-06-10T06:03:35.277Z,91.61
2019-06-10T06:04:34.256Z,91.61
2019-06-10T06:05:33.245Z,92.16
2019-06-10T06:06:33.345Z,91.96
2019-06-10T06:07:33.890Z,92.57
2019-06-10T06:08:33.364Z,92.57
2019-06-10T06:09:33.594Z,92.02
2019-06-10T06:10:33.873Z,91.71
2019-06-10T06:11:33.761Z,91.41
2019-06-10T06:12:33.884Z,91.41
2019-06-10T06:13:34.200Z,91.61
2019-06-10T06:14:34.247Z,91.82
2019-06-10T06:15:34.518Z,91.97
2019-06-10T06:16:33.103Z,91.27
2019-06-10T06:17:32.796Z,91.27
2019-06-10T06:18:34.599Z,91.13
2019-06-10T06:19:33.768Z,91.42
2019-06-10T06:20:35.592Z,91.22
2019-06-10T06:21:38.681Z,90.72
2019-06-10T06:22:34.321Z,90.42
2019-06-10T06:23:34.841Z,90.62
2019-06-10T06:24:34.313Z,90.62
2019-06-10T06:25:37.280Z,90.68
2019-06-10T06:26:36.482Z,91.14
2019-06-10T06:27:33.858Z,90.03
2019-06-10T06:28:34.294Z,89.63
2019-06-10T06:29:33.446Z,89.73
2019-06-10T06:30:34.440Z,89.26
2019-06-10T06:31:33.334Z,90.58
2019-06-10T06:32:33.685Z,90.33
2019-06-10T06:33:34.699Z,90.23
2019-06-10T06:34:33.675Z,89.63
2019-06-10T06:35:35.117Z,89.18
2019-06-10T06:36:33.796Z,89.48
2019-06-10T06:37:34.701Z,89.79
2019-06-10T06:38:35.185Z,88.82
2019-06-10T06:39:33.406Z,88.82
2019-06-10T06:40:34.296Z,88.82
2019-06-10T06:41:33.702Z,89.23
2019-06-10T06:42:33.523Z,89.73
2019-06-10T06:43:36.372Z,89.93
2019-06-10T06:44:34.494Z,90.33
2019-06-10T06:45:34.039Z,89.32
2019-06-10T06:46:34.570Z,89.26
2019-06-10T06:47:34.093Z,89.87
2019-06-10T06:48:36.613Z,89.47
2019-06-10T06:49:32.826Z,88.76
2019-06-10T06:50:34.333Z,90.07
2019-06-10T06:51:46.241Z,89.91
2019-06-10T06:53:04.878Z,89.47
2019-06-10T06:53:39.527Z,89.87
2019-06-10T06:54:33.434Z,87.96
2019-06-10T06:55:33.342Z,87.35
2019-06-10T06:56:34.527Z,86.75
2019-06-10T06:57:34.193Z,87.41
2019-06-10T06:58:33.446Z,88.92
2019-06-10T06:59:33.811Z,88.12
2019-06-10T07:00:50.994Z,86.41
2019-06-10T07:01:34.611Z,86.10
2019-06-10T07:02:32.183Z,85.96
2019-06-10T07:03:34.507Z,84.95
2019-06-10T07:04:33.916Z,84.41
2019-06-10T07:05:32.671Z,84.01
2019-06-10T07:06:32.898Z,83.37
2019-06-10T07:07:33.128Z,83.03
2019-06-10T07:08:33.287Z,81.98
2019-06-10T07:09:33.111Z,81.78
2019-06-10T07:10:32.874Z,81.88
2019-06-10T07:11:33.978Z,81.18
2019-06-10T07:12:33.766Z,80.88
2019-06-10T07:13:33.671Z,81.01
2019-06-10T07:14:33.732Z,81.18
2019-06-10T07:15:34.402Z,81.21
2019-06-10T07:16:34.043Z,81.58
2019-06-10T07:17:32.027Z,80.81
2019-06-10T07:18:34.336Z,80.91
2019-06-10T07:19:34.473Z,80.47
2019-06-10T07:20:33.325Z,80.47
2019-06-10T07:21:34.226Z,80.01
2019-06-10T07:22:33.566Z,80.61
2019-06-10T07:23:34.144Z,80.31
2019-06-10T07:24:34.169Z,81.12
2019-06-10T07:25:34.129Z,81.21
2019-06-10T07:26:34.077Z,80.81
2019-06-10T07:27:34.132Z,79.10
2019-06-10T07:28:34.040Z,78.30
2019-06-10T07:29:32.827Z,78.06
2019-06-10T07:30:34.303Z,78.30
2019-06-10T07:31:33.598Z,76.79
2019-06-10T07:32:32.921Z,77.96
2019-06-10T07:33:33.105Z,78.30
2019-06-10T07:34:33.933Z,78.50
2019-06-10T07:35:32.593Z,79.06
2019-06-10T07:36:33.463Z,79.41
2019-06-10T07:37:32.758Z,79.81
2019-06-10T07:38:33.195Z,79.61
2019-06-10T07:39:30.542Z,79.21
2019-06-10T07:40:32.962Z,78.50
2019-06-10T07:41:32.829Z,78.66
2019-06-10T07:42:32.853Z,77.16
2019-06-10T07:43:33.201Z,78.36
2019-06-10T07:44:33.411Z,78.16
2019-06-10T07:45:33.380Z,79.27
2019-06-10T07:46:30.461Z,79.27
2019-06-10T07:47:32.641Z,78.70
2019-06-10T07:48:32.963Z,78.97
2019-06-10T07:49:32.578Z,78.97
2019-06-10T07:50:32.914Z,79.03
2019-06-10T07:51:32.931Z,78.42
2019-06-10T07:52:32.794Z,78.33
2019-06-10T07:53:32.584Z,78.63
2019-06-10T07:54:32.856Z,78.46
2019-06-10T07:55:32.806Z,78.66
2019-06-10T07:56:36.269Z,78.03
2019-06-10T07:57:33.151Z,77.22
2019-06-10T07:58:32.603Z,78.03
2019-06-10T07:59:32.219Z,77.72
2019-06-10T08:00:30.318Z,76.68
2019-06-10T08:01:32.838Z,76.68
2019-06-10T08:02:32.300Z,76.89
2019-06-10T08:03:32.604Z,77.95
2019-06-10T08:04:30.273Z,76.75
2019-06-10T08:05:32.386Z,76.15
2019-06-10T08:06:30.257Z,75.71
2019-06-10T08:07:30.238Z,75.77
2019-06-10T08:08:32.641Z,73.67
2019-06-10T08:09:30.218Z,73.67
2019-06-10T08:10:32.699Z,74.27
2019-06-10T08:11:30.210Z,73.57
2019-06-10T08:12:32.403Z,74.23
2019-06-10T08:13:32.237Z,74.43
2019-06-10T08:14:32.846Z,74.77
2019-06-10T08:15:32.362Z,74.17
2019-06-10T08:16:32.581Z,74.27
2019-06-10T08:17:30.136Z,75.37
2019-06-10T08:18:30.131Z,73.23
2019-06-10T08:19:35.830Z,72.53
2019-06-10T08:20:32.610Z,71.89
2019-06-10T08:21:32.187Z,71.80
2019-06-10T08:22:34.357Z,71.56
2019-06-10T08:23:32.755Z,71.76
2019-06-10T08:24:32.743Z,72.16
2019-06-10T08:25:32.610Z,72.39
2019-06-10T08:26:32.309Z,72.16
2019-06-10T08:27:30.028Z,71.30
2019-06-10T08:28:30.018Z,71.80
2019-06-10T08:29:32.849Z,71.39
2019-06-10T08:30:32.771Z,71.06
2019-06-10T08:31:29.981Z,71.96
2019-06-10T08:32:30.001Z,70.89
2019-06-10T08:33:29.999Z,70.69
2019-06-10T08:34:29.954Z,71.09
2019-06-10T08:35:39.462Z,72.00
2019-06-10T08:36:33.383Z,71.69
2019-06-10T08:37:29.925Z,71.26
2019-06-10T08:38:32.685Z,70.69
2019-06-10T08:39:29.894Z,71.89
2019-06-10T08:40:32.423Z,71.86
2019-06-10T08:41:32.130Z,72.86
2019-06-10T08:42:32.251Z,73.72
2019-06-10T08:43:29.857Z,73.59
2019-06-10T08:44:32.597Z,73.39
2019-06-10T08:45:29.833Z,73.99
2019-06-10T08:46:29.837Z,72.16
2019-06-10T08:47:32.456Z,68.96
2019-06-10T08:48:29.799Z,66.96
2019-06-10T08:49:29.785Z,68.49
2019-06-10T08:50:29.775Z,69.36
2019-06-10T08:51:29.770Z,68.96
2019-06-10T08:52:29.759Z,70.36
2019-06-10T08:53:29.749Z,69.09
2019-06-10T08:54:32.258Z,70.26
2019-06-10T08:55:29.726Z,72.16
2019-06-10T08:56:29.710Z,72.96
2019-06-10T08:57:29.704Z,72.52
2019-06-10T08:58:29.693Z,71.72
2019-06-10T08:59:29.701Z,69.89
2019-06-10T09:00:29.669Z,68.89
2019-06-10T09:01:29.658Z,67.26
2019-06-10T09:02:29.641Z,68.29
2019-06-10T09:03:29.640Z,68.59
2019-06-10T09:04:29.703Z,69.29
2019-06-10T09:05:29.618Z,67.49
2019-06-10T09:06:29.655Z,67.60
2019-06-10T09:07:32.168Z,68.76
2019-06-10T09:08:29.585Z,69.56
2019-06-10T09:09:29.599Z,70.06
2019-06-10T09:10:29.575Z,70.72
2019-06-10T09:11:29.547Z,69.92
2019-06-10T09:12:35.805Z,68.70
2019-06-10T09:13:31.268Z,65.20
2019-06-10T09:14:29.516Z,64.04
2019-06-10T09:15:29.510Z,65.23
2019-06-10T09:16:32.028Z,64.74
2019-06-10T09:17:33.603Z,64.81
2019-06-10T09:18:29.475Z,64.90
2019-06-10T09:19:29.463Z,63.54
2019-06-10T09:20:29.454Z,62.74
2019-06-10T09:21:29.445Z,62.64
2019-06-10T09:22:29.439Z,63.84
2019-06-10T09:23:29.428Z,62.41
2019-06-10T09:24:29.411Z,62.81
2019-06-10T09:25:29.402Z,61.71
2019-06-10T09:26:29.387Z,62.12
2019-06-10T09:27:29.390Z,61.79
2019-06-10T09:28:29.366Z,62.71
2019-06-10T09:29:29.353Z,61.71
2019-06-10T09:30:29.349Z,62.64
2019-06-10T09:31:29.330Z,62.04
2019-06-10T09:32:29.325Z,61.61
2019-06-10T09:33:29.345Z,63.21
2019-06-10T09:34:29.304Z,62.91
2019-06-10T09:35:29.293Z,62.61
2019-06-10T09:36:29.282Z,62.68
2019-06-10T09:37:29.273Z,62.35
2019-06-10T09:38:29.265Z,60.26
2019-06-10T09:39:29.249Z,60.56
2019-06-10T09:40:29.248Z,60.93
2019-06-10T09:41:37.435Z,61.03
2019-06-10T09:42:30.215Z,60.00
2019-06-10T09:43:29.205Z,59.81
2019-06-10T09:44:29.201Z,60.97
2019-06-10T09:45:29.205Z,58.65
2019-06-10T09:46:29.177Z,58.16
2019-06-10T09:47:29.171Z,58.36
2019-06-10T09:48:29.160Z,60.14
2019-06-10T09:49:29.145Z,59.05
2019-06-10T09:50:29.136Z,58.62
2019-06-10T09:51:29.127Z,57.83
2019-06-10T09:52:29.133Z,59.42
2019-06-10T09:53:35.011Z,57.73
2019-06-10T09:54:30.091Z,57.70
2019-06-10T09:55:29.076Z,56.91
2019-06-10T09:56:29.070Z,57.81
2019-06-10T09:57:29.057Z,56.02
2019-06-10T09:58:29.069Z,56.17
2019-06-10T09:59:29.034Z,56.37
2019-06-10T10:00:29.260Z,56.30
2019-06-10T10:01:29.022Z,57.89
2019-06-10T10:02:29.007Z,56.77
2019-06-10T10:03:29.010Z,57.06
2019-06-10T10:04:28.987Z,56.64
2019-06-10T10:05:28.974Z,58.13
2019-06-10T10:06:28.963Z,55.91
2019-06-10T10:07:28.951Z,56.29
2019-06-10T10:08:28.964Z,57.38
2019-06-10T10:09:28.933Z,55.99
2019-06-10T10:10:28.923Z,55.49
2019-06-10T10:11:28.911Z,56.29
2019-06-10T10:12:28.899Z,55.96
2019-06-10T10:13:28.993Z,55.83
2019-06-10T10:14:28.876Z,54.92
2019-06-10T10:15:33.789Z,54.30
2019-06-10T10:16:29.877Z,52.02
2019-06-10T10:17:28.848Z,53.50
2019-06-10T10:18:28.896Z,53.60
2019-06-10T10:19:28.826Z,53.38
2019-06-10T10:20:28.819Z,53.58
2019-06-10T10:21:28.828Z,53.65
2019-06-10T10:22:28.792Z,52.83
2019-06-10T10:23:28.794Z,51.77
2019-06-10T10:24:28.775Z,53.08
2019-06-10T10:25:28.773Z,52.81
2019-06-10T10:26:28.753Z,53.83
2019-06-10T10:27:28.739Z,55.32
2019-06-10T10:28:28.729Z,54.92
2019-06-10T10:29:28.723Z,55.88
2019-06-10T10:30:28.703Z,54.17
2019-06-10T10:31:28.720Z,54.74
2019-06-10T10:32:28.686Z,53.65
2019-06-10T10:33:30.278Z,53.65
2019-06-10T10:34:28.663Z,53.35
2019-06-10T10:35:28.658Z,54.12
2019-06-10T10:36:28.649Z,54.02
2019-06-10T10:37:28.634Z,53.55
2019-06-10T10:38:28.636Z,53.28
2019-06-10T10:39:28.619Z,54.32
2019-06-10T10:40:28.602Z,55.15
2019-06-10T10:41:28.591Z,54.77
2019-06-10T10:42:41.649Z,56.36
2019-06-10T10:43:34.030Z,56.34
2019-06-10T10:44:29.561Z,54.72
2019-06-10T10:45:28.557Z,54.13
2019-06-10T10:46:28.544Z,54.90
2019-06-10T10:47:28.535Z,56.81
2019-06-10T10:48:28.536Z,56.12
2019-06-10T10:49:28.510Z,56.51
2019-06-10T10:50:28.499Z,56.29
2019-06-10T10:51:28.505Z,56.78
2019-06-10T10:52:28.520Z,56.09
2019-06-10T10:53:28.487Z,55.49
2019-06-10T10:54:34.035Z,55.89
2019-06-10T10:55:29.446Z,56.29
2019-06-10T10:56:28.431Z,57.48
2019-06-10T10:57:28.427Z,57.06
2019-06-10T10:58:28.411Z,57.35
2019-06-10T10:59:28.417Z,56.04
2019-06-10T11:00:32.839Z,55.69
2019-06-10T11:01:29.380Z,56.46
2019-06-10T11:02:28.373Z,56.19
2019-06-10T11:03:28.356Z,56.06
2019-06-10T11:04:28.347Z,57.06
2019-06-10T11:05:28.341Z,56.23
2019-06-10T11:06:28.327Z,56.13
2019-06-10T11:07:28.331Z,56.04
2019-06-10T11:08:28.306Z,55.34
2019-06-10T11:09:28.299Z,55.74
2019-06-10T11:10:28.286Z,55.91
2019-06-10T11:11:28.274Z,55.71
2019-06-10T11:12:28.274Z,54.52
2019-06-10T11:13:28.272Z,54.92
2019-06-10T11:14:28.276Z,55.64
2019-06-10T11:15:28.230Z,55.83
2019-06-10T11:16:28.221Z,56.66
2019-06-10T11:17:28.220Z,56.36
2019-06-10T11:18:28.195Z,56.06
2019-06-10T11:19:28.190Z,56.76
2019-06-10T11:20:28.217Z,55.83
2019-06-10T11:21:28.171Z,55.94
2019-06-10T11:22:28.157Z,58.02
2019-06-10T11:23:28.177Z,57.32
2019-06-10T11:24:36.624Z,57.62
2019-06-10T11:25:29.129Z,56.53
2019-06-10T11:26:28.112Z,55.54
2019-06-10T11:27:28.103Z,56.80
2019-06-10T11:28:28.092Z,55.32
2019-06-10T11:29:28.092Z,55.71
2019-06-10T11:30:28.085Z,55.41
2019-06-10T11:31:28.061Z,55.61
2019-06-10T11:32:28.058Z,55.71
2019-06-10T11:33:28.044Z,56.48
2019-06-10T11:34:28.040Z,54.79
2019-06-10T11:35:28.023Z,53.78
2019-06-10T11:36:28.010Z,53.58
2019-06-10T11:37:28.001Z,52.83
2019-06-10T11:38:27.990Z,53.57
2019-06-10T11:39:27.979Z,51.13
2019-06-10T11:40:27.965Z,48.59
2019-06-10T11:41:27.956Z,48.74
2019-06-10T11:42:28.106Z,47.28
2019-06-10T11:43:27.958Z,48.59
2019-06-10T11:44:27.934Z,47.58
2019-06-10T11:45:27.914Z,46.87
2019-06-10T11:46:27.911Z,46.18
2019-06-10T11:47:27.909Z,46.28
2019-06-10T11:48:27.886Z,46.97
2019-06-10T11:49:27.877Z,46.25
2019-06-10T11:50:27.877Z,46.84
2019-06-10T11:51:27.863Z,47.16
2019-06-10T11:52:27.838Z,47.19
2019-06-10T11:53:28.763Z,47.23
2019-06-10T11:54:27.818Z,47.85
2019-06-10T11:55:27.817Z,48.44
2019-06-10T11:56:27.801Z,49.74
2019-06-10T11:57:27.787Z,49.62
2019-06-10T11:58:27.776Z,48.22
2019-06-10T11:59:27.782Z,49.01
2019-06-10T12:00:27.771Z,49.30
2019-06-10T12:01:27.749Z,48.68
2019-06-10T12:02:27.777Z,50.71
2019-06-10T12:03:27.732Z,50.81
2019-06-10T12:04:27.714Z,50.88
2019-06-10T12:05:27.711Z,49.67
2019-06-10T12:06:27.701Z,49.57
2019-06-10T12:07:27.693Z,50.36
2019-06-10T12:08:27.680Z,50.07
2019-06-10T12:09:27.668Z,49.45
2019-06-10T12:10:27.669Z,49.33
2019-06-10T12:11:27.644Z,48.91
2019-06-10T12:12:27.642Z,48.00
2019-06-10T12:13:27.629Z,48.61
2019-06-10T12:14:27.619Z,49.55
2019-06-10T12:15:27.608Z,49.94
2019-06-10T12:17:42.026Z,50.07
2019-06-10T12:18:28.580Z,50.07
2019-06-10T12:19:27.569Z,51.87
2019-06-10T12:20:28.548Z,51.89
2019-06-10T12:21:27.549Z,52.09
2019-06-10T12:22:27.537Z,51.20
2019-06-10T12:23:27.525Z,51.20
2019-06-10T12:24:27.518Z,52.01
2019-06-10T12:25:35.057Z,52.83
2019-06-10T12:26:28.488Z,52.64
2019-06-10T12:27:27.486Z,53.25
2019-06-10T12:28:27.472Z,53.82
2019-06-10T12:29:27.465Z,52.73
2019-06-10T12:30:27.447Z,52.83
2019-06-10T12:31:27.442Z,53.48
2019-06-10T12:32:27.432Z,53.38
2019-06-10T12:33:27.439Z,53.55
2019-06-10T12:34:27.411Z,51.77
2019-06-10T12:35:27.401Z,51.00
2019-06-10T12:36:27.399Z,52.69
2019-06-10T12:37:27.379Z,52.71
2019-06-10T12:38:27.372Z,52.59
2019-06-10T12:39:27.353Z,52.69
2019-06-10T12:40:27.344Z,53.28
2019-06-10T12:41:27.587Z,53.31
2019-06-10T12:42:27.327Z,54.20
2019-06-10T12:43:27.325Z,54.17
2019-06-10T12:44:27.304Z,51.99
2019-06-10T12:45:27.295Z,52.39
2019-06-10T12:46:27.279Z,52.46
2019-06-10T12:47:27.269Z,53.75
2019-06-10T12:48:27.259Z,52.86
2019-06-10T12:49:27.251Z,52.34
2019-06-10T12:50:27.243Z,52.73
2019-06-10T12:51:27.237Z,52.51
2019-06-10T12:52:27.233Z,51.30
2019-06-10T12:53:27.205Z,50.61